sensor_id;sensor_type;location;lat;lon;timestamp;temperature;humidity
62912;DHT22;49111;51.028;4.218;2023-02-01T06:49:12;5.90;99.90
62912;DHT22;49111;51.028;4.218;2023-02-01T06:51:38;5.80;99.90
62912;DHT22;49111;51.028;4.218;2023-02-01T06:54:04;5.80;99.90
62912;DHT22;49111;51.028;4.218;2023-02-01T06:56:31;5.80;99.90
62912;DHT22;49111;51.028;4.218;2023-02-01T06:58:57;5.80;99.90
62912;DHT22;49111;51.028;4.218;2023-02-01T07:01:25;5.80;99.90
62912;DHT22;49111;51.028;4.218;2023-02-01T07:03:50;5.90;99.90
62912;DHT22;49111;51.028;4.218;2023-02-01T07:06:17;5.90;99.90
62912;DHT22;49111;51.028;4.218;2023-02-01T07:08:43;5.90;99.90
62912;DHT22;49111;51.028;4.218;2023-02-01T07:11:11;5.90;99.90
62912;DHT22;49111;51.028;4.218;2023-02-01T07:13:38;5.80;99.90
62912;DHT22;49111;51.028;4.218;2023-02-01T07:16:07;5.90;99.90
62912;DHT22;49111;51.028;4.218;2023-02-01T07:18:34;5.80;99.90
62912;DHT22;49111;51.028;4.218;2023-02-01T07:21:00;5.80;99.90
62912;DHT22;49111;51.028;4.218;2023-02-01T07:23:26;5.80;99.90
62912;DHT22;49111;51.028;4.218;2023-02-01T07:25:56;5.90;99.90
62912;DHT22;49111;51.028;4.218;2023-02-01T07:28:22;6.00;99.90
62912;DHT22;49111;51.028;4.218;2023-02-01T07:30:48;5.90;99.90
62912;DHT22;49111;51.028;4.218;2023-02-01T07:33:23;5.90;99.90
62912;DHT22;49111;51.028;4.218;2023-02-01T07:35:50;5.90;99.90
62912;DHT22;49111;51.028;4.218;2023-02-01T07:38:16;6.00;99.90
62912;DHT22;49111;51.028;4.218;2023-02-01T07:40:42;6.00;99.90
62912;DHT22;49111;51.028;4.218;2023-02-01T07:43:08;6.00;99.90
62912;DHT22;49111;51.028;4.218;2023-02-01T07:45:35;6.10;99.90
62912;DHT22;49111;51.028;4.218;2023-02-01T07:48:02;6.10;99.90
62912;DHT22;49111;51.028;4.218;2023-02-01T07:50:28;6.10;99.90
62912;DHT22;49111;51.028;4.218;2023-02-01T07:52:54;6.20;99.90
62912;DHT22;49111;51.028;4.218;2023-02-01T07:55:20;6.10;99.90
62912;DHT22;49111;51.028;4.218;2023-02-01T07:57:47;6.20;99.90
62912;DHT22;49111;51.028;4.218;2023-02-01T08:00:13;6.30;99.90
62912;DHT22;49111;51.028;4.218;2023-02-01T08:02:58;6.20;99.90
62912;DHT22;49111;51.028;4.218;2023-02-01T08:05:25;6.60;99.90
62912;DHT22;49111;51.028;4.218;2023-02-01T08:07:51;6.40;99.90
62912;DHT22;49111;51.028;4.218;2023-02-01T08:10:18;6.50;99.90
62912;DHT22;49111;51.028;4.218;2023-02-01T08:12:45;6.50;99.90
62912;DHT22;49111;51.028;4.218;2023-02-01T08:15:14;6.40;99.90
62912;DHT22;49111;51.028;4.218;2023-02-01T08:17:49;6.40;99.90
62912;DHT22;49111;51.028;4.218;2023-02-01T08:20:15;6.40;99.90
62912;DHT22;49111;51.028;4.218;2023-02-01T08:22:42;6.50;99.90
62912;DHT22;49111;51.028;4.218;2023-02-01T08:25:08;6.50;99.90
62912;DHT22;49111;51.028;4.218;2023-02-01T08:27:34;6.50;99.90
62912;DHT22;49111;51.028;4.218;2023-02-01T08:30:00;6.50;99.90
62912;DHT22;49111;51.028;4.218;2023-02-01T08:32:27;6.40;99.90
62912;DHT22;49111;51.028;4.218;2023-02-01T08:34:53;6.50;99.90
62912;DHT22;49111;51.028;4.218;2023-02-01T08:37:19;6.60;99.90
62912;DHT22;49111;51.028;4.218;2023-02-01T08:39:45;6.50;99.90
62912;DHT22;49111;51.028;4.218;2023-02-01T08:42:11;6.60;99.90
62912;DHT22;49111;51.028;4.218;2023-02-01T08:44:56;6.60;99.90
62912;DHT22;49111;51.028;4.218;2023-02-01T08:47:22;6.60;99.90
62912;DHT22;49111;51.028;4.218;2023-02-01T08:49:49;6.60;99.90
62912;DHT22;49111;51.028;4.218;2023-02-01T08:52:15;6.60;99.90
62912;DHT22;49111;51.028;4.218;2023-02-01T08:54:40;6.70;99.90
62912;DHT22;49111;51.028;4.218;2023-02-01T08:57:07;6.70;99.90
62912;DHT22;49111;51.028;4.218;2023-02-01T08:59:33;6.80;99.90
62912;DHT22;49111;51.028;4.218;2023-02-01T09:01:58;6.80;99.90
62912;DHT22;49111;51.028;4.218;2023-02-01T09:04:24;6.90;99.90
62912;DHT22;49111;51.028;4.218;2023-02-01T09:06:51;6.90;99.90
62912;DHT22;49111;51.028;4.218;2023-02-01T09:09:16;7.00;99.90
62912;DHT22;49111;51.028;4.218;2023-02-01T09:11:42;7.10;99.90
62912;DHT22;49111;51.028;4.218;2023-02-01T09:14:08;7.10;99.90
62912;DHT22;49111;51.028;4.218;2023-02-01T09:16:34;7.30;99.90
62912;DHT22;49111;51.028;4.218;2023-02-01T09:18:59;7.10;99.90
62912;DHT22;49111;51.028;4.218;2023-02-01T09:21:25;7.10;99.90
62912;DHT22;49111;51.028;4.218;2023-02-01T09:23:51;7.10;99.90
62912;DHT22;49111;51.028;4.218;2023-02-01T09:26:17;7.20;99.90
62912;DHT22;49111;51.028;4.218;2023-02-01T09:28:43;7.30;99.90
62912;DHT22;49111;51.028;4.218;2023-02-01T09:31:10;7.40;99.90
62912;DHT22;49111;51.028;4.218;2023-02-01T09:33:36;7.30;99.90
62912;DHT22;49111;51.028;4.218;2023-02-01T09:36:04;7.40;99.90
62912;DHT22;49111;51.028;4.218;2023-02-01T09:39:06;7.40;99.90
62912;DHT22;49111;51.028;4.218;2023-02-01T09:41:43;7.50;99.90
62912;DHT22;49111;51.028;4.218;2023-02-01T09:46:55;7.60;99.90
62912;DHT22;49111;51.028;4.218;2023-02-01T09:49:53;7.60;99.90
62912;DHT22;49111;51.028;4.218;2023-02-01T09:52:27;7.70;99.90
62912;DHT22;49111;51.028;4.218;2023-02-01T09:55:00;7.80;99.90
62912;DHT22;49111;51.028;4.218;2023-02-01T09:57:56;7.80;99.90
62912;DHT22;49111;51.028;4.218;2023-02-01T10:00:27;7.90;99.90
62912;DHT22;49111;51.028;4.218;2023-02-01T10:02:55;7.90;99.90
62912;DHT22;49111;51.028;4.218;2023-02-01T10:08:25;8.00;99.90
62912;DHT22;49111;51.028;4.218;2023-02-01T10:11:03;8.10;99.90
62912;DHT22;49111;51.028;4.218;2023-02-01T10:22:08;8.30;99.90
62912;DHT22;49111;51.028;4.218;2023-02-01T10:24:42;8.30;99.90
62912;DHT22;49111;51.028;4.218;2023-02-01T10:27:15;8.30;99.90
62912;DHT22;49111;51.028;4.218;2023-02-01T10:29:44;8.50;99.90
62912;DHT22;49111;51.028;4.218;2023-02-01T10:32:18;8.40;99.90
62912;DHT22;49111;51.028;4.218;2023-02-01T10:34:51;8.40;99.90
62912;DHT22;49111;51.028;4.218;2023-02-01T10:37:20;8.60;99.90
62912;DHT22;49111;51.028;4.218;2023-02-01T10:39:49;8.60;99.90
62912;DHT22;49111;51.028;4.218;2023-02-01T10:42:20;8.60;99.90
62912;DHT22;49111;51.028;4.218;2023-02-01T10:44:47;8.60;99.90
62912;DHT22;49111;51.028;4.218;2023-02-01T10:47:14;8.60;99.90
62912;DHT22;49111;51.028;4.218;2023-02-01T10:49:49;8.80;99.90
62912;DHT22;49111;51.028;4.218;2023-02-01T10:57:57;8.80;99.90
62912;DHT22;49111;51.028;4.218;2023-02-01T11:00:23;9.00;99.90
62912;DHT22;49111;51.028;4.218;2023-02-01T11:02:49;9.10;99.90
62912;DHT22;49111;51.028;4.218;2023-02-01T11:05:16;9.10;99.90
62912;DHT22;49111;51.028;4.218;2023-02-01T11:07:48;9.20;99.90
62912;DHT22;49111;51.028;4.218;2023-02-01T11:10:40;9.20;99.90
62912;DHT22;49111;51.028;4.218;2023-02-01T11:13:16;9.20;99.90
62912;DHT22;49111;51.028;4.218;2023-02-01T11:15:44;9.20;99.90
62912;DHT22;49111;51.028;4.218;2023-02-01T11:18:26;9.20;99.90
62912;DHT22;49111;51.028;4.218;2023-02-01T11:20:52;9.30;99.90
62912;DHT22;49111;51.028;4.218;2023-02-01T11:23:24;9.20;99.90
62912;DHT22;49111;51.028;4.218;2023-02-01T11:25:53;9.20;99.90
62912;DHT22;49111;51.028;4.218;2023-02-01T11:28:25;9.10;99.90
62912;DHT22;49111;51.028;4.218;2023-02-01T11:30:54;9.10;99.90
62912;DHT22;49111;51.028;4.218;2023-02-01T11:33:26;9.30;99.90
62912;DHT22;49111;51.028;4.218;2023-02-01T11:35:57;9.50;99.90
62912;DHT22;49111;51.028;4.218;2023-02-01T11:38:31;9.60;99.90
62912;DHT22;49111;51.028;4.218;2023-02-01T11:41:14;9.60;99.90
62912;DHT22;49111;51.028;4.218;2023-02-01T11:43:56;9.80;99.90
62912;DHT22;49111;51.028;4.218;2023-02-01T11:46:31;10.00;99.90
62912;DHT22;49111;51.028;4.218;2023-02-01T11:49:25;10.10;99.90
62912;DHT22;49111;51.028;4.218;2023-02-01T11:52:18;10.30;99.90
62912;DHT22;49111;51.028;4.218;2023-02-01T11:57:59;10.30;99.90
62912;DHT22;49111;51.028;4.218;2023-02-01T12:00:46;10.20;99.90
62912;DHT22;49111;51.028;4.218;2023-02-01T12:06:28;10.20;99.90
62912;DHT22;49111;51.028;4.218;2023-02-01T12:23:20;10.20;99.90
62912;DHT22;49111;51.028;4.218;2023-02-01T12:34:25;10.40;99.90
62912;DHT22;49111;51.028;4.218;2023-02-01T12:39:32;10.40;99.90
62912;DHT22;49111;51.028;4.218;2023-02-01T12:42:21;10.40;99.90
62912;DHT22;49111;51.028;4.218;2023-02-01T12:45:04;10.40;99.90
62912;DHT22;49111;51.028;4.218;2023-02-01T12:47:54;10.50;99.90
62912;DHT22;49111;51.028;4.218;2023-02-01T12:50:29;10.50;99.90
62912;DHT22;49111;51.028;4.218;2023-02-01T12:53:09;10.60;99.90
62912;DHT22;49111;51.028;4.218;2023-02-01T12:55:42;10.90;99.90
62912;DHT22;49111;51.028;4.218;2023-02-01T12:58:20;11.20;99.90
62912;DHT22;49111;51.028;4.218;2023-02-01T13:00:59;11.40;99.90
62912;DHT22;49111;51.028;4.218;2023-02-01T13:06:24;11.50;99.90
62912;DHT22;49111;51.028;4.218;2023-02-01T13:12:00;11.10;99.90
62912;DHT22;49111;51.028;4.218;2023-02-01T13:14:49;11.00;99.90
62912;DHT22;49111;51.028;4.218;2023-02-01T13:17:28;11.00;99.90
62912;DHT22;49111;51.028;4.218;2023-02-01T13:20:34;11.00;99.90
62912;DHT22;49111;51.028;4.218;2023-02-01T13:23:20;11.10;99.90
62912;DHT22;49111;51.028;4.218;2023-02-01T13:25:51;11.20;99.90
62912;DHT22;49111;51.028;4.218;2023-02-01T13:28:29;11.20;99.90
62912;DHT22;49111;51.028;4.218;2023-02-01T13:41:30;11.00;99.90
62912;DHT22;49111;51.028;4.218;2023-02-01T13:44:05;10.90;99.90
62912;DHT22;49111;51.028;4.218;2023-02-01T13:46:40;10.80;99.90
62912;DHT22;49111;51.028;4.218;2023-02-01T13:49:19;10.70;99.90
62912;DHT22;49111;51.028;4.218;2023-02-01T13:51:48;10.70;99.90
62912;DHT22;49111;51.028;4.218;2023-02-01T13:54:32;10.80;99.90
62912;DHT22;49111;51.028;4.218;2023-02-01T13:57:00;10.80;99.90
62912;DHT22;49111;51.028;4.218;2023-02-01T14:10:59;10.50;99.90
62912;DHT22;49111;51.028;4.218;2023-02-01T14:21:21;10.30;99.90
62912;DHT22;49111;51.028;4.218;2023-02-01T14:28:53;10.30;99.90
62912;DHT22;49111;51.028;4.218;2023-02-01T14:34:13;10.30;99.90
62912;DHT22;49111;51.028;4.218;2023-02-01T14:36:47;10.20;99.90
62912;DHT22;49111;51.028;4.218;2023-02-01T14:42:01;10.10;99.90
62912;DHT22;49111;51.028;4.218;2023-02-01T14:44:31;10.10;99.90
62912;DHT22;49111;51.028;4.218;2023-02-01T14:49:32;10.10;99.90
62912;DHT22;49111;51.028;4.218;2023-02-01T14:51:59;10.10;99.90
62912;DHT22;49111;51.028;4.218;2023-02-01T14:54:27;10.10;99.90
62912;DHT22;49111;51.028;4.218;2023-02-01T14:56:54;10.00;99.90
62912;DHT22;49111;51.028;4.218;2023-02-01T14:59:22;9.90;99.90
62912;DHT22;49111;51.028;4.218;2023-02-01T15:01:57;9.90;99.90
62912;DHT22;49111;51.028;4.218;2023-02-01T15:04:26;9.90;99.90
62912;DHT22;49111;51.028;4.218;2023-02-01T15:07:07;10.00;99.90
62912;DHT22;49111;51.028;4.218;2023-02-01T15:09:45;9.90;99.90
62912;DHT22;49111;51.028;4.218;2023-02-01T15:14:43;9.80;99.90
62912;DHT22;49111;51.028;4.218;2023-02-01T15:17:32;9.80;99.90
62912;DHT22;49111;51.028;4.218;2023-02-01T15:20:14;9.80;99.90
62912;DHT22;49111;51.028;4.218;2023-02-01T15:22:42;9.80;99.90
62912;DHT22;49111;51.028;4.218;2023-02-01T15:25:20;9.80;99.90
62912;DHT22;49111;51.028;4.218;2023-02-01T15:27:46;9.90;99.90
62912;DHT22;49111;51.028;4.218;2023-02-01T15:30:19;9.90;99.90
62912;DHT22;49111;51.028;4.218;2023-02-01T15:32:48;9.80;99.90
62912;DHT22;49111;51.028;4.218;2023-02-01T15:35:44;9.80;99.90
62912;DHT22;49111;51.028;4.218;2023-02-01T15:41:09;9.90;99.90
62912;DHT22;49111;51.028;4.218;2023-02-01T15:44:03;9.80;99.90
62912;DHT22;49111;51.028;4.218;2023-02-01T15:46:38;9.90;99.90
62912;DHT22;49111;51.028;4.218;2023-02-01T15:49:05;9.70;99.90
62912;DHT22;49111;51.028;4.218;2023-02-01T15:51:44;9.60;99.90
62912;DHT22;49111;51.028;4.218;2023-02-01T15:54:52;9.70;99.90
62912;DHT22;49111;51.028;4.218;2023-02-01T15:57:10;9.80;99.90
62912;DHT22;49111;51.028;4.218;2023-02-01T15:59:41;9.80;99.90
62912;DHT22;49111;51.028;4.218;2023-02-01T16:03:04;9.80;99.90
62912;DHT22;49111;51.028;4.218;2023-02-01T16:05:38;9.80;99.90
62912;DHT22;49111;51.028;4.218;2023-02-01T16:08:06;9.70;99.90
62912;DHT22;49111;51.028;4.218;2023-02-01T16:10:41;9.60;99.90
62912;DHT22;49111;51.028;4.218;2023-02-01T16:13:07;9.60;99.90
62912;DHT22;49111;51.028;4.218;2023-02-01T16:15:33;9.60;99.90
62912;DHT22;49111;51.028;4.218;2023-02-01T16:17:59;9.70;99.90
62912;DHT22;49111;51.028;4.218;2023-02-01T16:20:24;9.70;99.90
62912;DHT22;49111;51.028;4.218;2023-02-01T16:22:50;9.70;99.90
62912;DHT22;49111;51.028;4.218;2023-02-01T16:25:16;9.70;99.90
62912;DHT22;49111;51.028;4.218;2023-02-01T16:27:42;9.70;99.90
62912;DHT22;49111;51.028;4.218;2023-02-01T16:30:08;9.70;99.90
62912;DHT22;49111;51.028;4.218;2023-02-01T16:32:37;9.80;99.90
62912;DHT22;49111;51.028;4.218;2023-02-01T16:35:24;9.80;99.90
62912;DHT22;49111;51.028;4.218;2023-02-01T16:37:50;9.70;99.90
62912;DHT22;49111;51.028;4.218;2023-02-01T16:40:17;9.60;99.90
62912;DHT22;49111;51.028;4.218;2023-02-01T16:42:45;9.60;99.90
62912;DHT22;49111;51.028;4.218;2023-02-01T16:45:11;9.60;99.90
62912;DHT22;49111;51.028;4.218;2023-02-01T16:47:38;9.60;99.90
62912;DHT22;49111;51.028;4.218;2023-02-01T16:50:15;9.60;99.90
62912;DHT22;49111;51.028;4.218;2023-02-01T16:52:42;9.60;99.90
62912;DHT22;49111;51.028;4.218;2023-02-01T16:55:15;9.60;99.90
62912;DHT22;49111;51.028;4.218;2023-02-01T16:57:42;9.60;99.90
62912;DHT22;49111;51.028;4.218;2023-02-01T17:00:09;9.70;99.90
62912;DHT22;49111;51.028;4.218;2023-02-01T17:02:35;9.60;99.90
62912;DHT22;49111;51.028;4.218;2023-02-01T17:05:01;9.60;99.90
62912;DHT22;49111;51.028;4.218;2023-02-01T17:07:28;9.60;99.90
62912;DHT22;49111;51.028;4.218;2023-02-01T17:09:54;9.60;99.90
62912;DHT22;49111;51.028;4.218;2023-02-01T17:14:48;9.40;99.90
62912;DHT22;49111;51.028;4.218;2023-02-01T17:17:14;9.50;99.90
62912;DHT22;49111;51.028;4.218;2023-02-01T17:19:40;9.60;99.90
62912;DHT22;49111;51.028;4.218;2023-02-01T17:22:06;9.50;99.90
62912;DHT22;49111;51.028;4.218;2023-02-01T17:24:32;9.50;99.90
62912;DHT22;49111;51.028;4.218;2023-02-01T17:26:58;9.60;99.90
62912;DHT22;49111;51.028;4.218;2023-02-01T17:29:23;9.50;99.90
62912;DHT22;49111;51.028;4.218;2023-02-01T17:31:51;9.70;99.90
62912;DHT22;49111;51.028;4.218;2023-02-01T17:34:18;9.60;99.90
62912;DHT22;49111;51.028;4.218;2023-02-01T17:36:45;9.60;99.90
62912;DHT22;49111;51.028;4.218;2023-02-01T17:39:13;9.60;99.90
62912;DHT22;49111;51.028;4.218;2023-02-01T17:41:59;9.60;99.90
62912;DHT22;49111;51.028;4.218;2023-02-01T17:44:25;9.60;99.90
62912;DHT22;49111;51.028;4.218;2023-02-01T17:46:51;9.60;99.90
62912;DHT22;49111;51.028;4.218;2023-02-01T17:49:17;9.60;99.90
62912;DHT22;49111;51.028;4.218;2023-02-01T17:51:43;9.70;99.90
62912;DHT22;49111;51.028;4.218;2023-02-01T17:54:16;9.70;99.90
62912;DHT22;49111;51.028;4.218;2023-02-01T17:56:44;9.60;99.90
62912;DHT22;49111;51.028;4.218;2023-02-01T17:59:11;9.60;99.90
62912;DHT22;49111;51.028;4.218;2023-02-01T18:01:36;9.50;99.90
62912;DHT22;49111;51.028;4.218;2023-02-01T18:04:02;9.60;99.90
62912;DHT22;49111;51.028;4.218;2023-02-01T18:06:33;9.60;99.90
62912;DHT22;49111;51.028;4.218;2023-02-01T18:08:59;9.60;99.90
62912;DHT22;49111;51.028;4.218;2023-02-01T18:11:25;9.60;99.90
62912;DHT22;49111;51.028;4.218;2023-02-01T18:13:52;9.60;99.90
62912;DHT22;49111;51.028;4.218;2023-02-01T18:16:25;9.60;99.90
62912;DHT22;49111;51.028;4.218;2023-02-01T18:18:51;9.60;99.90
62912;DHT22;49111;51.028;4.218;2023-02-01T18:21:20;9.60;99.90
62912;DHT22;49111;51.028;4.218;2023-02-01T18:23:46;9.70;99.90
62912;DHT22;49111;51.028;4.218;2023-02-01T18:26:14;9.60;99.90
62912;DHT22;49111;51.028;4.218;2023-02-01T18:28:40;9.70;99.90
62912;DHT22;49111;51.028;4.218;2023-02-01T18:31:23;9.60;99.90
62912;DHT22;49111;51.028;4.218;2023-02-01T18:33:50;9.60;99.90
62912;DHT22;49111;51.028;4.218;2023-02-01T18:36:16;9.60;99.90
62912;DHT22;49111;51.028;4.218;2023-02-01T18:38:42;9.50;99.90
62912;DHT22;49111;51.028;4.218;2023-02-01T18:41:15;9.50;99.90
62912;DHT22;49111;51.028;4.218;2023-02-01T18:43:42;9.50;99.90
62912;DHT22;49111;51.028;4.218;2023-02-01T18:46:09;9.50;99.90
62912;DHT22;49111;51.028;4.218;2023-02-01T18:48:35;9.50;99.90
62912;DHT22;49111;51.028;4.218;2023-02-01T18:51:02;9.60;99.90
62912;DHT22;49111;51.028;4.218;2023-02-01T18:53:28;9.50;99.90
62912;DHT22;49111;51.028;4.218;2023-02-01T18:55:55;9.50;99.90
62912;DHT22;49111;51.028;4.218;2023-02-01T18:58:22;9.50;99.90
62912;DHT22;49111;51.028;4.218;2023-02-01T19:00:52;9.50;99.90
62912;DHT22;49111;51.028;4.218;2023-02-01T19:03:18;9.40;99.90
62912;DHT22;49111;51.028;4.218;2023-02-01T19:05:45;9.40;99.90
62912;DHT22;49111;51.028;4.218;2023-02-01T19:08:11;9.50;99.90
62912;DHT22;49111;51.028;4.218;2023-02-01T19:10:37;9.50;99.90
62912;DHT22;49111;51.028;4.218;2023-02-01T19:13:04;9.50;99.90
62912;DHT22;49111;51.028;4.218;2023-02-01T19:15:30;9.50;99.90
62912;DHT22;49111;51.028;4.218;2023-02-01T19:17:57;9.50;99.90
62912;DHT22;49111;51.028;4.218;2023-02-01T19:20:24;9.50;99.90
62912;DHT22;49111;51.028;4.218;2023-02-01T19:22:51;9.50;99.90
62912;DHT22;49111;51.028;4.218;2023-02-01T19:25:27;9.40;99.90
